KILN/ILN METAR and TAF weather

Enter ICAO airport designator
Station Type Date Time Source
KILN METAR 2023/02/05 13:54 UTC NOAA

KILN 051354Z AUTO 21014KT 10SM CLR 05/M03 A3004 RMK AO2 SLP189 T00501033


Station Type Date Time Source
KILN Decoded METAR 2023/02/05 13:54 UTC NOAA

WILMINGTON INDUSTRIAL AIRPORT , OH, United States (KILN) 39-26N 083-47W 332M
Feb 05, 2023 - 08:54 AM EST / 2023.02.05 1354 UTC
Wind: from the SSW (210 degrees) at 16 MPH (14 KT):0
Visibility: 10 mile(s):0
Sky conditions: clear
Temperature: 41.0 F (5.0 C)
Dew Point: 26.1 F (-3.3 C)
Relative Humidity: 54%
Pressure (altimeter): 30.04 in. Hg (1017 hPa)
ob: KILN 051354Z AUTO 21014KT 10SM CLR 05/M03 A3004 RMK AO2 SLP189 T00501033
cycle: 14

Station Type Date Time Source
KILN TAF 2023/02/05 12:30 UTC NOAA

TAF KILN 051129Z 0512/0612 22014G24KT P6SM BKN200 WS020/23045KT
FM051500 22015G28KT P6SM BKN040
FM051900 23015G27KT P6SM OVC035
FM052300 27012KT P6SM OVC035
FM060600 32010KT P6SM BKN025

Example: see airport list